Owls Head, ME

6:33 AM EST on December 25, 2014 (GMT -0500)
GoMOOS Penobscot Bay | Change Station
CLOSE
Current Station
Personal Weather Station
Location: Owls Head, ME
Elevation: 0 ft
Nearby Weather Stations
Active Advisory: Coastal Flood Statement

Elev 0 ft 44.06 °N, 69.00 °W | Updated 1 hour ago

Overcast
Overcast
48 °F
Feels Like 43 °F
N
11
Wind Variable Wind from South
Gusts 13.0 mph

Today
High -- | Low -- °F
--% Chance of Precip.
Yesterday
High -- | Low -- °F
Precip. -- in
7:09 AM 4:02 PM
Waxing Crescent, 15% visible
Pressure 29.44 in
Visibility 0.2 miles
Clouds Overcast 200 ft
Windchill 43 °F
Dew Point Not available.
Humidity Not available.
Rainfall -999.00 in
Snow Depth Not available.
UV 0 out of 12
Pollen .10 out of 12
Air Quality Not available.
Flu Activity Not available.
METAR KRKD 251115Z AUTO 18007KT 1/4SM OVC002 11/11 A2944 RMK AO1

More Conditions Fewer Conditions

Pressure 29.44 in
Visibility 0.2 miles
Clouds Overcast 200 ft
Windchill 43 °F
Dew Point Not available.
Humidity Not available.
Rainfall -999.00 in
Snow Depth Not available.
UV 0 out of 12
Pollen .10 out of 12
Air Quality Not available.
Flu Activity Not available.
METAR KRKD 251115Z AUTO 18007KT 1/4SM OVC002 11/11 A2944 RMK AO1

More Conditions Fewer Conditions

10-Day Weather Forecast

Almanac

Astronomy

Dec. 25, 2014 Rise Set
Actual Time
Civil Twilight
Nautical Twilight
Astronomical Twilight
Moon
Length of Visible Light
Length of Day
Tomorrow will be .
, % of the Moon is Illuminated

Today's Extremes

State Highs State Lows

Community

WunderPhotos

Upload Photos

1,780,259 photos uploaded!

WunderBlogs® & News

Nearby

Air Quality

  Air Quality AQ Index Pollutant
Not available.

Snow Depth

Station Depth Elevation

Earthquake Activity

City Distance Mag. Time & Date
Minimum magnitude displayed is 2.5.

Coastal Water Temperatures

Place Temperature

Nearby Weather Stations